Flight Track Log - Related Links

Times and Time Zones

All times are in EDT time to prevent confusion due to time zone crossing. See the N210SY flight status page for this flight to view local times or setup timezone preferences in your user account.

Time Position Orientation Groundspeed Altitude Reporting Facility
EDT Latitude Longitude Course Direction KTS MPH feet Rate Location/Type
Thu 06:05:08 PM 42.8881 -85.6125 170° South 115 132 2,300  Level Chicago Center
Thu 06:06:10 PM 42.8628 -85.6286 205° Southwest 126 145 3,000 629 Climbing Chicago Center
Thu 06:07:12 PM 42.8292 -85.6172 166° South 124 143 3,600 581 Climbing Chicago Center
Thu 06:08:14 PM 42.7944 -85.6117 173° South 125 144 4,200 576 Climbing Chicago Center
Thu 06:09:00 PM 42.6386 -85.4738 175° South  Level Estimated
Thu 06:09:17 PM 42.7525 -85.6056 174° South 126 145 4,800  Level Chicago Center
Thu 06:10:00 PM 42.5982 -85.4656 170° South  Level Estimated
Thu 06:10:19 PM 42.7178 -85.6019 176° South 126 145 5,100  Level Chicago Center
Thu 06:11:21 PM 42.6789 -85.5997 178° South 135 155 5,100  Level Chicago Center
Thu 06:12:23 PM 42.6397 -85.5947 175° South 140 161 5,100  Level Chicago Center
Thu 06:13:25 PM 42.6008 -85.5875 172° South 140 161 5,100  Level Chicago Center
Thu 06:14:27 PM 42.5631 -85.5789 170° South 139 160 5,100  Level Chicago Center
Thu 06:15:29 PM 42.5164 -85.5711 173° South 141 162 5,100  Level Chicago Center
Thu 06:16:31 PM 42.4764 -85.5622 171° South 145 167 5,100  Level Chicago Center
Thu 06:17:33 PM 42.4353 -85.5544 172° South 149 171 5,100  Level Chicago Center
Thu 06:18:36 PM 42.3942 -85.5475 173° South 149 171 5,100  Level Chicago Center
Thu 06:19:38 PM 42.3547 -85.5414 173° South 145 167 5,100  Level Chicago Center
Thu 06:20:40 PM 42.3153 -85.5356 174° South 143 165 5,100  Level Chicago Center
Thu 06:21:42 PM 42.2675 -85.5272 173° South 145 167 5,100 242 Level Chicago Center
Thu 06:22:44 PM 42.2331 -85.5214 173° South 140 161 5,600 387 Climbing Chicago Center
Thu 06:23:46 PM 42.1981 -85.5150 172° South 130 150 5,900 387 Climbing Chicago Center
Thu 06:24:48 PM 42.1550 -85.5064 172° South 130 150 6,400 435 Climbing Chicago Center
Thu 06:25:50 PM 42.1197 -85.4994 172° South 128 147 6,800 387 Climbing Chicago Center
Thu 06:26:52 PM 42.0853 -85.4919 171° South 126 145 7,200 145 Climbing Chicago Center
Thu 06:27:54 PM 42.0447 -85.4847 172° South 140 161 7,100 -48 Descending Chicago Center
Thu 06:28:56 PM 42.0044 -85.4761 171° South 146 168 7,100  Level Chicago Center
Thu 06:29:58 PM 41.9656 -85.4664 169° South 143 165 7,100  Level Chicago Center
Thu 06:31:01 PM 41.9183 -85.4569 172° South 143 165 7,100  Level Chicago Center
Thu 06:32:03 PM 41.8775 -85.4481 171° South 146 168 7,100  Level Chicago Center
Thu 06:33:05 PM 41.8358 -85.4375 169° South 150 173 7,100  Level Chicago Center
Thu 06:34:07 PM 41.7944 -85.4278 170° South 151 174 7,100  Level Chicago Center
Thu 06:35:09 PM 41.7528 -85.4183 170° South 152 175 7,100  Level Chicago Center
Thu 06:36:11 PM 41.7022 -85.4075 171° South 152 175 7,100  Level Chicago Center
Thu 06:37:13 PM 41.6592 -85.3983 171° South 155 178 7,100  Level Chicago Center
Thu 06:38:15 PM 41.6136 -85.3889 171° South 155 178 7,100  Level Chicago Center
Thu 06:39:17 PM 41.5714 -85.3831 174° South 153 176 7,100  Level Chicago Center
Thu 06:40:19 PM 41.5300 -85.3772 174° South 151 174 7,100  Level Chicago Center
Thu 06:41:21 PM 41.4878 -85.3711 174° South 151 174 7,100  Level Chicago Center
Thu 06:42:23 PM 41.4458 -85.3656 174° South 152 175 7,100  Level Chicago Center
Thu 06:43:25 PM 41.4022 -85.3594 174° South 154 177 7,100  Level Chicago Center
Thu 06:44:28 PM 41.3603 -85.3517 172° South 154 177 7,100  Level Chicago Center
Thu 06:45:30 PM 41.3108 -85.3442 173° South 151 174 7,100  Level Chicago Center
Thu 06:46:32 PM 41.2700 -85.3325 168° South 150 173 7,100  Level Chicago Center
Thu 06:47:34 PM 41.2294 -85.3192 166° South 150 173 7,100  Level Chicago Center
Thu 06:48:36 PM 41.1878 -85.3075 168° South 151 174 7,100  Level Chicago Center
Thu 06:49:38 PM 41.1444 -85.2950 168° South 155 178 7,100  Level Chicago Center
Thu 06:50:40 PM 41.1025 -85.2825 167° South 156 180 7,100  Level Chicago Center
Thu 06:51:42 PM 41.0519 -85.2653 166° South 156 180 7,100  Level Chicago Center
Thu 06:52:44 PM 41.0117 -85.2531 167° South 151 174 7,100  Level Chicago Center
Thu 06:53:46 PM 40.9703 -85.2400 167° South 151 174 7,100  Level Chicago Center
Thu 06:54:48 PM 40.9283 -85.2267 166° South 155 178 7,100  Level Chicago Center
Thu 06:55:50 PM 40.8878 -85.2144 167° South 151 174 7,100  Level Chicago Center
Thu 06:56:52 PM 40.8458 -85.1997 165° South 153 176 7,100  Level Chicago Center
Thu 06:57:54 PM 40.7967 -85.1831 166° South 153 176 7,100  Level Chicago Center
Thu 06:58:56 PM 40.7564 -85.1697 166° South 150 173 7,100  Level Chicago Center
Thu 06:59:58 PM 40.7158 -85.1558 165° South 151 174 7,100  Level Chicago Center
Thu 07:01:00 PM 40.6756 -85.1419 165° South 151 174 7,100  Level Chicago Center
Thu 07:02:02 PM 40.6294 -85.1225 162° South 150 173 7,100  Level Chicago Center
Thu 07:02:25 PM 40.6211 -85.1217 176° South 149 171 7,100  Level Indianapolis Center
Thu 07:03:27 PM 40.5733 -85.1042 164° South 148 170 7,100  Level Indianapolis Center
Thu 07:04:29 PM 40.5331 -85.0869 162° South 151 174 7,100  Level Indianapolis Center
Thu 07:05:31 PM 40.4931 -85.0700 162° South 150 173 7,100  Level Indianapolis Center
Thu 07:06:33 PM 40.4525 -85.0569 166° South 151 174 7,100  Level Indianapolis Center
Thu 07:07:35 PM 40.4114 -85.0406 163° South 152 175 7,100  Level Indianapolis Center
Thu 07:08:37 PM 40.3706 -85.0261 165° South 153 176 7,100  Level Indianapolis Center
Thu 07:09:39 PM 40.3233 -85.0072 163° South 150 173 7,100  Level Indianapolis Center
Thu 07:10:00 PM 40.3100 -85.0033 167° South 151 174 7,100  Level Indianapolis Center
Thu 07:10:41 PM 40.2825 -84.9931 164° South 151 174 7,100  Level Indianapolis Center
Thu 07:11:01 PM 40.2694 -84.9864 159° South 151 174 7,100 97 Level Indianapolis Center
Thu 07:11:43 PM 40.2414 -84.9803 171° South 151 174 7,200  Climbing Indianapolis Center
Thu 07:12:19 PM 40.2156 -84.9786 177° South 153 176 7,100 -97 Descending Indianapolis Center
Thu 07:12:45 PM 40.1986 -84.9767 175° South 153 176 7,100  Level Indianapolis Center
Thu 07:13:02 PM 40.1825 -84.9739 172° South 153 176 7,100  Level Indianapolis Center
Thu 07:13:47 PM 40.1558 -84.9694 173° South 154 177 7,100  Level Indianapolis Center
Thu 07:14:03 PM 40.1389 -84.9675 175° South 155 178 7,100  Level Indianapolis Center
Thu 07:14:49 PM 40.1053 -84.9619 173° South 154 177 7,100  Level Indianapolis Center
Thu 07:15:10 PM 40.0933 -84.9611 177° South 154 177 7,100  Level Indianapolis Center
Thu 07:15:51 PM 40.0628 -84.9550 171° South 153 176 7,100  Level Indianapolis Center
Thu 07:16:53 PM 40.0214 -84.9486 173° South 153 176 7,100  Level Indianapolis Center
Thu 07:17:55 PM 39.9794 -84.9408 172° South 152 175 7,100  Level Indianapolis Center
Thu 07:18:18 PM 39.9611 -84.9392 176° South 152 175 7,100  Level Indianapolis Center
Thu 07:18:57 PM 39.9372 -84.9339 170° South 152 175 7,100  Level Indianapolis Center
Thu 07:19:13 PM 39.9239 -84.9311 171° South 150 173 7,100  Level Indianapolis Center
Thu 07:19:58 PM 39.8975 -84.9267 173° South 148 170 7,100  Level Indianapolis Center
Thu 07:21:00 PM 39.8575 -84.9181 171° South 146 168 7,100 -37 Level Indianapolis Center
Thu 07:22:42 PM 39.7847 -84.9022 171° South 146 168 7,000  Descending Chicago Center
Thu 07:23:10 PM 39.7650 -84.9003 176° South 145 167 7,100 71 Climbing Indianapolis Center
Thu 07:24:06 PM 39.7314 -84.8908 168° South 145 167 7,100  Level Indianapolis Center
Thu 07:25:08 PM 39.6917 -84.8825 171° South 143 165 7,100  Level Indianapolis Center
Thu 07:26:09 PM 39.6508 -84.8731 170° South 145 167 7,100  Level Indianapolis Center
Thu 07:27:11 PM 39.6111 -84.8631 169° South 145 167 7,100  Level Indianapolis Center
Thu 07:28:13 PM 39.5708 -84.8528 169° South 146 168 7,100  Level Indianapolis Center
Thu 07:29:15 PM 39.5239 -84.8411 169° South 147 169 7,100  Level Indianapolis Center
Thu 07:30:17 PM 39.4831 -84.8317 170° South 147 169 7,100  Level Indianapolis Center
Thu 07:31:18 PM 39.4425 -84.8228 170° South 146 168 7,100  Level Indianapolis Center
Thu 07:32:20 PM 39.4014 -84.8147 171° South 148 170 7,100  Level Indianapolis Center
Thu 07:33:22 PM 39.3614 -84.8064 171° South 146 168 7,100  Level Indianapolis Center
Thu 07:33:53 PM 39.3333 -84.8000 170° South 147 169 7,100  Level Cincinnati TRACON
Thu 07:34:53 PM 39.3000 -84.7833 159° South 152 175 7,100  Level Cincinnati TRACON
Thu 07:35:53 PM 39.2500 -84.7833 180° South 149 171 7,100  Level Cincinnati TRACON
Thu 07:36:53 PM 39.2167 -84.7667 159° South 148 170 7,100  Level Cincinnati TRACON
Thu 07:37:53 PM 39.1667 -84.7667 180° South 149 171 7,100  Level Cincinnati TRACON
Thu 07:38:53 PM 39.1333 -84.7500 159° South 147 169 7,100  Level Cincinnati TRACON
Thu 07:39:53 PM 39.0833 -84.7500 180° South 148 170 7,100  Level Cincinnati TRACON
Thu 07:40:53 PM 39.0500 -84.7333 159° South 148 170 7,100  Level Cincinnati TRACON
Thu 07:41:53 PM 39.0167 -84.7333 180° South 147 169 7,100  Level Cincinnati TRACON
Thu 07:42:53 PM 38.9667 -84.7167 165° South 148 170 7,100  Level Cincinnati TRACON
Thu 07:43:53 PM 38.9333 -84.7167 180° South 152 175 7,100  Level Cincinnati TRACON
Thu 07:44:53 PM 38.8833 -84.7167 180° South 151 174 7,100  Level Cincinnati TRACON
Thu 07:45:42 PM 38.8567 -84.7067 164° South 150 173 7,100  Level Indianapolis Center
Thu 07:46:44 PM 38.8150 -84.6994 172° South 151 174 7,100  Level Indianapolis Center
Thu 07:47:46 PM 38.7739 -84.6928 173° South 151 174 7,100  Level Indianapolis Center
Thu 07:48:47 PM 38.7325 -84.6878 175° South 150 173 7,100  Level Indianapolis Center
Thu 07:49:49 PM 38.6833 -84.6789 172° South 148 170 7,100  Level Indianapolis Center
Thu 07:50:50 PM 38.6431 -84.6725 173° South 148 170 7,100  Level Indianapolis Center
Thu 07:51:52 PM 38.6019 -84.6658 173° South 148 170 7,100  Level Indianapolis Center
Thu 07:52:53 PM 38.5606 -84.6597 173° South 149 171 7,100  Level Indianapolis Center
Thu 07:53:55 PM 38.5208 -84.6522 172° South 146 168 7,100  Level Indianapolis Center
Thu 07:54:57 PM 38.4811 -84.6461 173° South 144 166 7,100  Level Indianapolis Center
Thu 07:55:58 PM 38.4411 -84.6406 174° South 144 166 7,100  Level Indianapolis Center
Thu 07:57:00 PM 38.3947 -84.6333 173° South 144 166 7,100 -293 Level Indianapolis Center
Thu 07:58:01 PM 38.3539 -84.6275 174° South 146 168 6,500 -585 Descending Indianapolis Center
Thu 07:59:03 PM 38.3125 -84.6203 172° South 148 170 5,900 -683 Descending Indianapolis Center
Thu 08:00:04 PM 38.2703 -84.6139 173° South 150 173 5,100 -976 Descending Indianapolis Center
Thu 08:01:06 PM 38.2264 -84.6072 173° South 154 177 3,900 -1,024 Descending Indianapolis Center
Thu 08:02:07 PM 38.1836 -84.6011 174° South 155 178 3,000 -683 Descending Indianapolis Center
Thu 08:03:09 PM 38.1489 -84.5894 165° South 147 169 2,500 -293 Descending Indianapolis Center
Thu 08:04:10 PM 38.1017 -84.5928 183° South 147 169 2,400 -98 Descending Indianapolis Center
Thu 08:06:00 PM 38.0333 -84.6000 180° South  Level FlightAware Approximate
Thu 08:13:00 PM 38.0368 -84.6086 180° South  Level Estimated
Thu 08:14:00 PM 38.0368 -84.6086 180° South  Level Estimated
Thu 08:15:00 PM 38.0368 -84.6086 180° South  Level Estimated

Login

Don't have an account? Register now (free) for customized features, flight alerts, and more!